createdAt,value
2017-06-10T00:00:11.135Z,99.90
2017-06-10T00:02:39.571Z,99.90
2017-06-10T00:05:07.992Z,99.90
2017-06-10T00:07:36.428Z,99.90
2017-06-10T00:10:05.638Z,99.90
2017-06-10T00:12:34.093Z,99.90
2017-06-10T00:15:03.289Z,99.90
2017-06-10T00:17:32.388Z,99.90
2017-06-10T00:20:01.603Z,99.90
2017-06-10T00:22:30.793Z,99.90
2017-06-10T00:25:00.010Z,99.90
2017-06-10T00:27:28.632Z,99.90
2017-06-10T00:29:57.078Z,99.90
2017-06-10T00:32:25.522Z,99.90
2017-06-10T00:34:54.045Z,99.90
2017-06-10T00:37:23.239Z,99.90
2017-06-10T00:39:51.659Z,99.90
2017-06-10T00:42:20.089Z,99.90
2017-06-10T00:44:49.303Z,99.90
2017-06-10T00:47:17.734Z,99.90
2017-06-10T00:49:46.173Z,99.90
2017-06-10T00:52:14.615Z,99.90
2017-06-10T00:54:43.056Z,99.90
2017-06-10T00:57:11.483Z,99.90
2017-06-10T00:59:40.724Z,99.90
2017-06-10T01:02:09.155Z,99.90
2017-06-10T01:04:37.597Z,99.90
2017-06-10T01:07:06.027Z,99.90
2017-06-10T01:09:35.251Z,99.90
2017-06-10T01:12:04.447Z,99.90
2017-06-10T01:14:33.668Z,99.90
2017-06-10T01:17:02.107Z,99.90
2017-06-10T01:19:30.191Z,99.90
2017-06-10T01:21:59.535Z,99.90
2017-06-10T01:24:27.987Z,99.90
2017-06-10T01:26:56.435Z,99.90
2017-06-10T01:29:24.863Z,99.90
2017-06-10T01:31:53.427Z,99.90
2017-06-10T01:34:22.619Z,99.90
2017-06-10T01:36:51.816Z,99.90
2017-06-10T01:39:21.019Z,99.90
2017-06-10T01:41:50.263Z,99.90
2017-06-10T01:44:18.707Z,99.90
2017-06-10T01:46:47.899Z,99.90
2017-06-10T01:49:17.127Z,99.90
2017-06-10T01:51:45.543Z,99.90
2017-06-10T01:54:13.963Z,99.90
2017-06-10T01:56:43.176Z,99.90
2017-06-10T01:59:11.608Z,99.90
2017-06-10T02:01:40.038Z,99.90
2017-06-10T02:04:08.478Z,99.90
2017-06-10T02:06:36.971Z,99.90
2017-06-10T02:09:04.718Z,99.90
2017-06-10T02:11:33.149Z,99.90
2017-06-10T02:14:01.587Z,99.90
2017-06-10T02:16:30.029Z,99.90
2017-06-10T02:18:59.907Z,99.90
2017-06-10T02:21:29.118Z,99.90
2017-06-10T02:23:57.560Z,99.90
2017-06-10T02:26:26.009Z,99.90
2017-06-10T02:28:55.907Z,99.90
2017-06-10T02:31:25.097Z,99.90
2017-06-10T02:33:54.371Z,99.90
2017-06-10T02:36:22.787Z,99.90
2017-06-10T02:38:51.223Z,99.90
2017-06-10T02:41:19.677Z,99.90
2017-06-10T02:43:48.111Z,99.90
2017-06-10T02:46:17.331Z,99.90
2017-06-10T02:48:45.806Z,99.90
2017-06-10T02:51:14.251Z,99.90
2017-06-10T02:53:42.686Z,99.90
2017-06-10T02:56:11.131Z,99.90
2017-06-10T02:58:39.598Z,99.90
2017-06-10T03:01:08.026Z,99.90
2017-06-10T03:03:36.471Z,99.90
2017-06-10T03:06:05.048Z,99.90
2017-06-10T03:08:33.539Z,99.90
2017-06-10T03:11:02.083Z,99.90
2017-06-10T03:13:30.512Z,99.90
2017-06-10T03:15:59.636Z,99.90
2017-06-10T03:18:28.055Z,99.90
2017-06-10T03:20:56.498Z,99.90
2017-06-10T03:23:24.930Z,99.90
2017-06-10T03:25:53.369Z,99.90
2017-06-10T03:28:23.238Z,99.90
2017-06-10T03:30:51.682Z,99.90
2017-06-10T03:33:20.103Z,99.90
2017-06-10T03:35:48.564Z,99.90
2017-06-10T03:38:17.007Z,99.90
2017-06-10T03:40:47.095Z,99.90
2017-06-10T03:43:16.301Z,99.90
2017-06-10T03:45:45.494Z,99.90
2017-06-10T03:48:14.774Z,99.90
2017-06-10T03:50:43.228Z,99.90
2017-06-10T03:53:11.723Z,99.90
2017-06-10T03:55:40.164Z,99.90
2017-06-10T03:58:08.675Z,99.90
2017-06-10T04:00:37.131Z,99.90
2017-06-10T04:03:05.599Z,99.90
2017-06-10T04:05:34.806Z,99.90
2017-06-10T04:08:04.107Z,99.90
2017-06-10T04:10:33.371Z,99.90
2017-06-10T04:13:01.816Z,99.90
2017-06-10T04:15:30.234Z,99.90
2017-06-10T04:17:58.758Z,99.90
2017-06-10T04:20:27.304Z,99.90
2017-06-10T04:22:55.722Z,99.90
2017-06-10T04:25:24.161Z,99.90
2017-06-10T04:27:52.687Z,99.90
2017-06-10T04:30:21.144Z,99.90
2017-06-10T04:32:49.568Z,99.90
2017-06-10T04:35:18.012Z,99.90
2017-06-10T04:37:46.459Z,99.90
2017-06-10T04:40:14.959Z,99.90
2017-06-10T04:42:43.583Z,99.90
2017-06-10T04:45:12.019Z,99.90
2017-06-10T04:47:40.451Z,99.90
2017-06-10T04:50:08.899Z,99.90
2017-06-10T04:52:37.542Z,99.90
2017-06-10T04:55:05.971Z,99.90
2017-06-10T04:57:34.402Z,99.90
2017-06-10T05:00:02.843Z,99.90
2017-06-10T05:02:32.059Z,99.90
2017-06-10T05:05:00.488Z,99.90
2017-06-10T05:07:28.928Z,99.90
2017-06-10T05:09:57.380Z,99.90
2017-06-10T05:12:25.826Z,99.90
2017-06-10T05:14:54.269Z,99.90
2017-06-10T05:17:23.527Z,99.90
2017-06-10T05:19:51.959Z,99.90
2017-06-10T05:22:20.532Z,99.90
2017-06-10T05:24:49.769Z,99.90
2017-06-10T05:27:18.203Z,99.90
2017-06-10T05:29:47.415Z,99.90
2017-06-10T05:32:15.852Z,99.90
2017-06-10T05:34:44.311Z,99.90
2017-06-10T05:37:12.748Z,99.90
2017-06-10T05:39:41.944Z,99.90
2017-06-10T05:42:11.146Z,99.90
2017-06-10T05:44:40.347Z,99.90
2017-06-10T05:47:09.708Z,99.90
2017-06-10T05:49:38.167Z,99.90
2017-06-10T05:52:06.599Z,99.90
2017-06-10T05:54:35.028Z,99.90
2017-06-10T05:57:03.715Z,99.90
2017-06-10T05:59:32.132Z,99.90
2017-06-10T06:02:00.555Z,99.90
2017-06-10T06:04:29.015Z,99.90
2017-06-10T06:06:58.328Z,99.90
2017-06-10T06:09:27.530Z,99.90
2017-06-10T06:11:55.976Z,99.90
2017-06-10T06:14:24.407Z,99.90
2017-06-10T06:16:52.844Z,99.90
2017-06-10T06:19:21.289Z,99.90
2017-06-10T06:21:49.733Z,99.90
2017-06-10T06:24:18.847Z,99.90
2017-06-10T06:26:47.295Z,99.90
2017-06-10T06:29:15.735Z,99.90
2017-06-10T06:31:44.404Z,99.90
2017-06-10T06:34:12.869Z,99.90
2017-06-10T06:36:42.051Z,99.90
2017-06-10T06:39:11.250Z,99.90
2017-06-10T06:41:40.463Z,99.90
2017-06-10T06:44:09.659Z,99.90
2017-06-10T06:46:38.939Z,99.90
2017-06-10T06:49:07.555Z,99.90
2017-06-10T06:51:36.075Z,99.90
2017-06-10T06:54:04.503Z,99.90
2017-06-10T06:56:32.946Z,99.90
2017-06-10T06:59:01.395Z,99.90
2017-06-10T07:01:29.835Z,99.90
2017-06-10T07:03:58.259Z,99.90
2017-06-10T07:06:26.711Z,99.90
2017-06-10T07:08:55.149Z,99.90
2017-06-10T07:11:23.707Z,99.90
2017-06-10T07:13:52.127Z,99.90
2017-06-10T07:16:20.567Z,99.90
2017-06-10T07:18:49.010Z,99.90
2017-06-10T07:21:17.439Z,99.90
2017-06-10T07:23:45.911Z,99.90
2017-06-10T07:26:14.343Z,99.90
2017-06-10T07:28:42.788Z,99.90
2017-06-10T07:31:11.231Z,99.90
2017-06-10T07:33:39.662Z,99.90
2017-06-10T07:36:08.107Z,99.90
2017-06-10T07:38:36.571Z,99.90
2017-06-10T07:41:05.032Z,99.90
2017-06-10T07:43:33.537Z,99.90
2017-06-10T07:46:02.082Z,99.90
2017-06-10T07:48:30.499Z,99.20
2017-06-10T07:50:58.940Z,99.90
2017-06-10T07:53:27.368Z,97.60
2017-06-10T07:55:55.803Z,97.80
2017-06-10T07:58:24.271Z,96.00
2017-06-10T08:00:52.706Z,96.20
2017-06-10T08:03:21.136Z,95.10
2017-06-10T08:05:49.562Z,95.40
2017-06-10T08:08:17.998Z,93.80
2017-06-10T08:10:46.447Z,94.70
2017-06-10T08:13:14.883Z,91.80
2017-06-10T08:15:43.315Z,86.40
2017-06-10T08:18:11.746Z,92.80
2017-06-10T08:20:40.175Z,90.50
2017-06-10T08:23:09.315Z,91.30
2017-06-10T08:25:37.743Z,88.90
2017-06-10T08:28:06.184Z,77.40
2017-06-10T08:30:34.623Z,78.80
2017-06-10T08:33:03.080Z,82.20
2017-06-10T08:35:31.522Z,85.10
2017-06-10T08:37:59.975Z,90.40
2017-06-10T08:40:28.433Z,81.00
2017-06-10T08:42:56.859Z,88.20
2017-06-10T08:45:25.291Z,84.30
2017-06-10T08:47:53.740Z,82.80
2017-06-10T08:50:22.306Z,76.60
2017-06-10T08:52:50.732Z,80.10
2017-06-10T08:55:19.211Z,76.60
2017-06-10T08:57:47.656Z,82.60
2017-06-10T09:00:16.096Z,75.70
2017-06-10T09:02:44.525Z,81.80
2017-06-10T09:05:12.972Z,79.90
2017-06-10T09:07:41.395Z,78.60
2017-06-10T09:10:09.827Z,73.90
2017-06-10T09:12:38.259Z,58.00
2017-06-10T09:15:06.698Z,63.70
2017-06-10T09:17:35.140Z,70.00
2017-06-10T09:20:03.612Z,65.40
2017-06-10T09:22:32.079Z,68.60
2017-06-10T09:25:00.540Z,66.00
2017-06-10T09:27:28.996Z,60.10
2017-06-10T09:29:57.423Z,59.30
2017-06-10T09:32:25.875Z,59.40
2017-06-10T09:34:54.303Z,57.70
2017-06-10T09:37:22.753Z,65.10
2017-06-10T09:39:51.207Z,61.90
2017-06-10T09:42:20.128Z,56.80
2017-06-10T09:44:48.551Z,57.10
2017-06-10T09:47:16.999Z,59.60
2017-06-10T09:49:45.444Z,64.60
2017-06-10T09:52:13.874Z,58.30
2017-06-10T09:54:42.321Z,57.10
2017-06-10T09:57:10.751Z,58.90
2017-06-10T09:59:39.191Z,61.00
2017-06-10T10:02:07.701Z,66.00
2017-06-10T10:04:36.162Z,60.10
2017-06-10T10:07:04.603Z,59.50
2017-06-10T10:09:33.043Z,56.40
2017-06-10T10:12:01.556Z,57.20
2017-06-10T10:14:30.020Z,55.70
2017-06-10T10:16:59.130Z,61.60
2017-06-10T10:19:27.596Z,62.80
2017-06-10T10:21:56.023Z,55.00
2017-06-10T10:24:24.537Z,53.10
2017-06-10T10:26:52.962Z,54.40
2017-06-10T10:29:21.417Z,55.20
2017-06-10T10:31:49.832Z,54.30
2017-06-10T10:34:18.335Z,56.20
2017-06-10T10:36:46.787Z,60.10
2017-06-10T10:39:15.218Z,58.80
2017-06-10T10:41:43.672Z,56.50
2017-06-10T10:44:12.102Z,60.90
2017-06-10T10:46:40.604Z,53.50
2017-06-10T10:49:09.036Z,51.80
2017-06-10T10:51:37.459Z,52.80
2017-06-10T10:54:05.911Z,52.50
2017-06-10T10:56:34.343Z,56.30
2017-06-10T10:59:02.917Z,58.20
2017-06-10T11:01:31.356Z,52.50
2017-06-10T11:03:59.803Z,51.50
2017-06-10T11:06:28.231Z,49.10
2017-06-10T11:08:56.648Z,55.90
2017-06-10T11:11:25.096Z,52.80
2017-06-10T11:13:53.518Z,58.60
2017-06-10T11:16:21.976Z,58.50
2017-06-10T11:18:50.396Z,56.00
2017-06-10T11:21:18.842Z,56.40
2017-06-10T11:23:47.294Z,53.60
2017-06-10T11:26:15.727Z,53.80
2017-06-10T11:28:44.183Z,54.00
2017-06-10T11:31:12.622Z,53.60
2017-06-10T11:33:41.075Z,52.40
2017-06-10T11:36:09.520Z,54.20
2017-06-10T11:38:37.955Z,56.40
2017-06-10T11:41:06.379Z,56.40
2017-06-10T11:43:34.823Z,51.80
2017-06-10T11:46:03.328Z,49.00
2017-06-10T11:48:31.764Z,49.00
2017-06-10T11:51:00.187Z,48.60
2017-06-10T11:53:28.667Z,49.60
2017-06-10T11:55:57.123Z,49.10
2017-06-10T11:58:25.559Z,50.30
2017-06-10T12:00:54.019Z,50.30
2017-06-10T12:03:22.468Z,50.70
2017-06-10T12:05:50.903Z,48.10
2017-06-10T12:08:19.337Z,48.40
2017-06-10T12:10:47.823Z,48.50
2017-06-10T12:13:16.283Z,58.40
2017-06-10T12:15:44.710Z,54.20
2017-06-10T12:18:13.142Z,46.70
2017-06-10T12:20:41.589Z,49.80
2017-06-10T12:23:10.054Z,55.50
2017-06-10T12:25:38.569Z,48.50
2017-06-10T12:28:07.000Z,52.30
2017-06-10T12:30:35.439Z,50.70
2017-06-10T12:33:03.883Z,54.10
2017-06-10T12:35:32.324Z,52.00
2017-06-10T12:38:00.789Z,49.50
2017-06-10T12:40:29.207Z,51.50
2017-06-10T12:42:57.660Z,48.80
2017-06-10T12:45:26.100Z,54.70
2017-06-10T12:47:54.568Z,50.00
2017-06-10T12:50:23.007Z,49.60
2017-06-10T12:52:51.444Z,48.10
2017-06-10T12:55:19.880Z,50.20
2017-06-10T12:57:48.316Z,49.60
2017-06-10T13:00:16.765Z,49.00
2017-06-10T13:02:45.204Z,45.00
2017-06-10T13:05:13.672Z,51.20
2017-06-10T13:07:42.090Z,46.30
2017-06-10T13:10:10.537Z,43.90
2017-06-10T13:12:38.987Z,46.10
2017-06-10T13:15:07.430Z,48.00
2017-06-10T13:17:35.857Z,47.80
2017-06-10T13:20:04.299Z,44.90
2017-06-10T13:22:32.760Z,47.70
2017-06-10T13:25:01.207Z,45.60
2017-06-10T13:27:29.707Z,49.40
2017-06-10T13:29:58.147Z,47.50
2017-06-10T13:32:26.568Z,47.10
2017-06-10T13:34:55.012Z,47.60
2017-06-10T13:37:23.538Z,44.70
2017-06-10T13:39:51.995Z,50.70
2017-06-10T13:42:20.427Z,45.50
2017-06-10T13:44:48.847Z,43.10
2017-06-10T13:47:17.298Z,48.20
2017-06-10T13:49:45.715Z,48.50
2017-06-10T13:52:14.172Z,47.80
2017-06-10T13:54:43.530Z,48.80
2017-06-10T13:57:12.628Z,46.70
2017-06-10T13:59:41.064Z,50.20
2017-06-10T14:02:09.511Z,49.30
2017-06-10T14:04:37.956Z,43.80
2017-06-10T14:07:06.391Z,42.50
2017-06-10T14:09:34.826Z,43.40
2017-06-10T14:12:03.319Z,44.10
2017-06-10T14:14:31.756Z,49.70
2017-06-10T14:17:00.873Z,44.50
2017-06-10T14:19:29.303Z,47.30
2017-06-10T14:21:57.741Z,47.30
2017-06-10T14:24:26.179Z,44.40
2017-06-10T14:26:54.628Z,42.90
2017-06-10T14:29:23.073Z,41.40
2017-06-10T14:31:51.519Z,42.40
2017-06-10T14:34:19.983Z,41.90
2017-06-10T14:36:48.435Z,41.20
2017-06-10T14:39:16.865Z,44.70
2017-06-10T14:41:45.304Z,43.50
2017-06-10T14:44:13.759Z,48.70
2017-06-10T14:46:42.195Z,47.50
2017-06-10T14:49:10.639Z,49.50
2017-06-10T14:51:39.071Z,45.90
2017-06-10T14:54:07.524Z,47.70
2017-06-10T14:56:36.636Z,46.40
2017-06-10T14:59:05.074Z,45.80
2017-06-10T15:01:33.491Z,51.50
2017-06-10T15:04:01.919Z,47.50
2017-06-10T15:06:30.354Z,50.10
2017-06-10T15:08:58.773Z,47.90
2017-06-10T15:11:27.231Z,46.30
2017-06-10T15:13:55.659Z,47.00
2017-06-10T15:16:24.220Z,49.30
2017-06-10T15:18:52.638Z,46.70
2017-06-10T15:21:21.077Z,48.60
2017-06-10T15:23:49.559Z,50.10
2017-06-10T15:26:17.975Z,45.20
2017-06-10T15:28:46.499Z,46.40
2017-06-10T15:31:14.931Z,45.10
2017-06-10T15:33:43.380Z,43.70
2017-06-10T15:36:11.802Z,47.10
2017-06-10T15:38:40.227Z,47.60
2017-06-10T15:41:08.690Z,47.20
2017-06-10T15:43:37.119Z,48.50
2017-06-10T15:46:05.559Z,46.80
2017-06-10T15:48:34.011Z,51.00
2017-06-10T15:51:02.452Z,48.40
2017-06-10T15:53:30.899Z,45.40
2017-06-10T15:56:00.006Z,46.90
2017-06-10T15:58:28.451Z,44.70
2017-06-10T16:00:56.880Z,47.70
2017-06-10T16:03:25.304Z,48.00
2017-06-10T16:05:53.742Z,47.90
2017-06-10T16:08:22.189Z,46.10
2017-06-10T16:10:50.629Z,47.90
2017-06-10T16:13:19.071Z,47.10
2017-06-10T16:15:47.498Z,44.20
2017-06-10T16:18:15.956Z,48.40
2017-06-10T16:20:44.408Z,45.70
2017-06-10T16:23:12.848Z,43.80
2017-06-10T16:25:41.299Z,40.70
2017-06-10T16:28:09.743Z,45.40
2017-06-10T16:30:38.156Z,47.60
2017-06-10T16:33:06.594Z,44.70
2017-06-10T16:35:35.018Z,45.60
2017-06-10T16:38:03.471Z,43.70
2017-06-10T16:40:31.887Z,44.90
2017-06-10T16:43:00.356Z,42.80
2017-06-10T16:45:28.798Z,45.50
2017-06-10T16:47:57.268Z,46.50
2017-06-10T16:50:25.687Z,48.10
2017-06-10T16:52:54.139Z,44.20
2017-06-10T16:55:22.583Z,45.10
2017-06-10T16:57:51.023Z,44.10
2017-06-10T17:00:19.472Z,45.10
2017-06-10T17:02:47.907Z,46.80
2017-06-10T17:05:16.340Z,43.20
2017-06-10T17:07:44.840Z,42.60
2017-06-10T17:10:13.373Z,44.20
2017-06-10T17:12:41.816Z,43.70
2017-06-10T17:15:10.249Z,44.30
2017-06-10T17:17:38.805Z,44.80
2017-06-10T17:20:07.221Z,48.90
2017-06-10T17:22:35.639Z,45.60
2017-06-10T17:25:04.091Z,45.00
2017-06-10T17:27:32.615Z,46.80
2017-06-10T17:30:01.075Z,44.30
2017-06-10T17:32:29.504Z,45.10
2017-06-10T17:34:57.951Z,47.50
2017-06-10T17:37:26.472Z,45.50
2017-06-10T17:39:54.926Z,46.30
2017-06-10T17:42:23.359Z,47.70
2017-06-10T17:44:51.525Z,44.20
2017-06-10T17:47:20.891Z,45.00
2017-06-10T17:49:50.215Z,47.20
2017-06-10T17:52:18.887Z,47.20
2017-06-10T17:54:48.076Z,48.70
2017-06-10T17:57:17.344Z,48.70
2017-06-10T17:59:45.793Z,48.60
2017-06-10T18:02:14.216Z,49.40
2017-06-10T18:04:43.361Z,50.20
2017-06-10T18:07:11.787Z,48.80
2017-06-10T18:09:40.227Z,49.60
2017-06-10T18:12:08.650Z,50.70
2017-06-10T18:14:37.158Z,51.30
2017-06-10T18:17:05.648Z,52.60
2017-06-10T18:19:34.761Z,50.80
2017-06-10T18:22:02.999Z,53.80
2017-06-10T18:24:31.356Z,52.00
2017-06-10T18:27:12.611Z,51.80
2017-06-10T18:29:40.864Z,52.40
2017-06-10T18:32:10.071Z,55.40
2017-06-10T18:34:39.207Z,55.20
2017-06-10T18:37:07.676Z,55.10
2017-06-10T18:39:36.096Z,56.00
2017-06-10T18:42:04.544Z,53.90
2017-06-10T18:44:33.000Z,54.60
2017-06-10T18:47:01.460Z,54.60
2017-06-10T18:49:30.660Z,55.20
2017-06-10T18:51:59.881Z,55.10
2017-06-10T18:54:28.328Z,54.60
2017-06-10T18:56:56.761Z,54.90
2017-06-10T18:59:25.213Z,55.80
2017-06-10T19:01:54.523Z,56.10
2017-06-10T19:04:23.392Z,55.00
2017-06-10T19:06:53.020Z,55.60
2017-06-10T19:09:21.875Z,55.60
2017-06-10T19:11:50.333Z,57.30
2017-06-10T19:14:19.704Z,57.80
2017-06-10T19:16:48.141Z,56.50
2017-06-10T19:19:16.663Z,57.30
2017-06-10T19:21:45.087Z,59.80
2017-06-10T19:24:13.535Z,61.20
2017-06-10T19:26:42.007Z,61.20
2017-06-10T19:29:10.464Z,60.20
2017-06-10T19:31:38.904Z,58.80
2017-06-10T19:34:07.340Z,59.90
2017-06-10T19:36:36.565Z,62.80
2017-06-10T19:39:04.300Z,62.70
2017-06-10T19:41:33.507Z,66.90
2017-06-10T19:44:02.699Z,66.40
2017-06-10T19:46:31.904Z,68.70
2017-06-10T19:49:01.111Z,70.60
2017-06-10T19:51:30.430Z,69.30
2017-06-10T19:53:58.904Z,67.80
2017-06-10T19:56:27.360Z,68.90
2017-06-10T19:58:55.810Z,66.10
2017-06-10T20:01:24.655Z,64.90
2017-06-10T20:03:53.144Z,65.40
2017-06-10T20:06:21.599Z,65.80
2017-06-10T20:08:50.039Z,66.70
2017-06-10T20:11:18.496Z,69.80
2017-06-10T20:13:46.910Z,70.30
2017-06-10T20:16:15.374Z,72.90
2017-06-10T20:18:43.872Z,73.40
2017-06-10T20:21:13.031Z,75.20
2017-06-10T20:23:41.447Z,77.60
2017-06-10T20:26:09.908Z,79.80
2017-06-10T20:28:38.364Z,78.60
2017-06-10T20:31:06.867Z,79.10
2017-06-10T20:33:35.395Z,78.80
2017-06-10T20:36:03.841Z,79.90
2017-06-10T20:38:32.306Z,79.90
2017-06-10T20:41:00.881Z,79.80
2017-06-10T20:43:29.340Z,80.60
2017-06-10T20:45:57.777Z,81.40
2017-06-10T20:48:26.237Z,81.10
2017-06-10T20:50:55.417Z,81.20
2017-06-10T20:53:24.527Z,82.00
2017-06-10T20:55:52.967Z,82.40
2017-06-10T20:58:21.484Z,83.10
2017-06-10T21:00:50.752Z,86.40
2017-06-10T21:03:19.188Z,89.80
2017-06-10T21:05:47.643Z,90.80
2017-06-10T21:08:16.841Z,92.40
2017-06-10T21:10:46.045Z,93.50
2017-06-10T21:13:15.179Z,93.80
2017-06-10T21:15:43.612Z,94.00
2017-06-10T21:18:12.780Z,94.50
2017-06-10T21:20:41.239Z,95.30
2017-06-10T21:23:09.686Z,94.80
2017-06-10T21:25:38.892Z,94.80
2017-06-10T21:28:07.320Z,94.70
2017-06-10T21:30:35.772Z,93.90
2017-06-10T21:33:04.223Z,92.80
2017-06-10T21:35:33.070Z,92.00
2017-06-10T21:38:01.527Z,92.00
2017-06-10T21:40:29.970Z,92.80
2017-06-10T21:42:59.159Z,94.50
2017-06-10T21:45:27.595Z,94.40
2017-06-10T21:47:56.047Z,93.60
2017-06-10T21:50:25.466Z,93.70
2017-06-10T21:52:53.907Z,93.60
2017-06-10T21:55:22.375Z,94.80
2017-06-10T21:57:50.828Z,94.30
2017-06-10T22:00:19.365Z,94.10
2017-06-10T22:02:47.823Z,94.90
2017-06-10T22:05:16.243Z,94.70
2017-06-10T22:07:45.469Z,93.60
2017-06-10T22:10:13.884Z,93.50
2017-06-10T22:12:42.340Z,93.60
2017-06-10T22:15:10.777Z,93.40
2017-06-10T22:17:39.982Z,95.50
2017-06-10T22:20:09.283Z,95.50
2017-06-10T22:22:37.721Z,95.50
2017-06-10T22:25:06.143Z,95.60
2017-06-10T22:27:35.358Z,96.40
2017-06-10T22:30:03.788Z,96.30
2017-06-10T22:32:32.217Z,97.00
2017-06-10T22:35:00.732Z,96.00
2017-06-10T22:37:29.300Z,97.00
2017-06-10T22:39:57.749Z,96.80
2017-06-10T22:42:26.968Z,97.70
2017-06-10T22:44:55.400Z,97.70
2017-06-10T22:47:23.839Z,97.70
2017-06-10T22:49:52.367Z,97.70
2017-06-10T22:52:20.787Z,97.60
2017-06-10T22:54:49.239Z,98.10
2017-06-10T22:57:17.667Z,97.00
2017-06-10T22:59:46.087Z,97.30
2017-06-10T23:02:14.539Z,96.80
2017-06-10T23:04:42.955Z,97.10
2017-06-10T23:07:11.401Z,97.70
2017-06-10T23:09:39.829Z,97.60
2017-06-10T23:12:08.259Z,98.10
2017-06-10T23:14:36.711Z,98.30
2017-06-10T23:17:06.052Z,99.20
2017-06-10T23:19:34.484Z,98.70
2017-06-10T23:22:02.919Z,98.90
2017-06-10T23:24:31.517Z,98.30
2017-06-10T23:26:59.937Z,98.00
2017-06-10T23:29:28.439Z,99.00
2017-06-10T23:31:56.876Z,99.70
2017-06-10T23:34:25.371Z,99.50
2017-06-10T23:36:53.835Z,99.70
2017-06-10T23:39:22.255Z,99.30
2017-06-10T23:41:51.456Z,99.20
2017-06-10T23:44:20.603Z,98.80
2017-06-10T23:46:49.862Z,99.20
2017-06-10T23:49:18.315Z,99.50
2017-06-10T23:51:46.736Z,99.90
2017-06-10T23:54:15.323Z,99.90
2017-06-10T23:56:44.679Z,99.70
2017-06-10T23:59:13.896Z,99.50
